Terminal Aerodrome Forecast
Issued by NWS

Home | Current Version | Previous Version | Text Only | Print | Product List | Glossary On
Versions: 1 2 3 4 5 6 7 8 9 10 11 12 13 14 15 16 17 18 19 20 21 22 23 24 25
000
FTUS45 KRIW 242325
TAFJAC
TAF
KJAC 242325Z 2500/2524 03007KT P6SM -SN SCT015 OVC035
      TEMPO 2500/2501 5SM -SHSN BKN025
     FM250200 01005KT P6SM VCSH SCT013 OVC030
     FM250600 VRB04KT P6SM VCSH BKN035 OVC100
     FM250800 VRB03KT P6SM VCFG SCT005 SCT100
     FM251700 26007KT P6SM SCT025
      AMD LTD TO CLD VIS AND WIND=

USA.gov is the U.S. government's official web portal to all federal, state and local government web resources and services.